Tyler, TX (75703)

1:14 PM CDT on July 02, 2015 (GMT -0500)
Chimney Creek | | Change Station
CLOSE
Current Station
Personal Weather Station
Location: Tyler, TX
Elevation: 499 ft
Nearby Weather Stations

Elev 499 ft 32.29 °N, 95.31 °W | Updated 1 minute ago

Clear
Clear
88.3 °F
Feels Like 94 °F
N
2.7
Wind Variable Wind from NW

Today
High -- | Low -- °F
--% Chance of Precip.
Yesterday
High -- | Low -- °F
Precip. -- in
6:18 AM 8:31 PM
Waxing Gibbous, 99% visible
Pressure 29.99 in
Visibility 10.0 miles
Clouds Few 3600 ft
Heat Index 94 °F
Dew Point 71 °F
Humidity 57%
Rainfall 0.00 in
Snow Depth Not available.
UV 12 out of 12
Pollen 4.20 out of 12
Air Quality Not available.
Flu Activity Not available.
METAR KTYR 021753Z 20014KT 10SM FEW036 31/21 A3001 RMK AO2 SLP154 T03110211 10311 20228 58006

More Conditions Fewer Conditions

Pressure 29.99 in
Visibility 10.0 miles
Clouds Few 3600 ft
Heat Index 94 °F
Dew Point 71 °F
Humidity 57%
Rainfall 0.00 in
Snow Depth Not available.
UV 12 out of 12
Pollen 4.20 out of 12
Air Quality Not available.
Flu Activity Not available.
METAR KTYR 021753Z 20014KT 10SM FEW036 31/21 A3001 RMK AO2 SLP154 T03110211 10311 20228 58006

More Conditions Fewer Conditions

10-Day Weather Forecast

×

Almanac

Astronomy

Jul. 02, 2015 Rise Set
Actual Time
Civil Twilight
Nautical Twilight
Astronomical Twilight
Moon
Length of Visible Light
Length of Day
Tomorrow will be .
, % of the Moon is Illuminated

Today's Extremes

State Highs State Lows

Community

WunderPhotos

Upload Photos

1,834,507 photos uploaded!

WunderBlogs® & News

Nearby

Air Quality

  Air Quality AQ Index Pollutant
Not available.

Snow Depth

Station Depth Elevation

Earthquake Activity

City Distance Mag. Time & Date
Minimum magnitude displayed is 2.5.

Coastal Water Temperatures

Place Temperature

Stations

Nearby Weather Stations

Station Location Temp. Windchill Dew Point Humidity Wind Precip. Elev Updated Type